Portada
METAR-TAF:

METAR-TAF

Aeroports :

Aeroport d'Ouagadougou

Ouagadougou, Burkina Faso

latitud: 12-21N, longitud: 001-31W, altitud: 316 m

Observació

L'informe es va fer fa 32 minuts, a les 07:00 UTC
Vent 4 kt del Oest
Temperatura 27°C
Humitat 62%
Pressió 1011 hPa
Visibilitat 10 km o més
sense núvols per sota de 1500 mi sense presència de cumulonimbus.

METAR: DFFD 220700Z 28004KT CAVOK 27/19 Q1011 NOSIG

Hora: 07:32 (07:32 UTC)

Pronòstic

L'informe es va fer fa 42 minuts, a les 06:50 UTC
Pronòstic vàlid del 22 a les 07 UTC al 23 a les 12 UTC
Vent 8 kt amb direcció variable
Visibilitat 10 km o més
sense núvols per sota de 1500 mi sense presència de cumulonimbus.
Probabilitat 30% :
Temporalment
l' 22 a les 15 UTC al 22 a les 22 UTC
Visibilitat: 4000 m
Núvols disperses a una alçada de 2600 ft
Escasses núvols a una alçada de 3600 ft, Cumulonimbus.
tempesta, pluja

TAF: DFFD 220650Z 2207/2312 VRB08KT CAVOK PROB30 TEMPO 2215/2222 4000 TSRA SCT026 FEW036CB

Observacions i pronòstics meteorològics de més de 4000 aeroports (METAR i TAF).

Les estacions disponibles són els punts grocs i vermells al mapa.

Posi el ratolí al punt desitjat per veure el nom de l'estació.

Feu clic per veure les observacions i els pronòstics meteorològics.

Per canviar el mapa: feu clic els botons verds amb una creu de color negre per apropar; al botó verd amb un guió per allunyar la imatge; o en les fletxes verdes per a mapes adjacents.


METAR-TAF: